Terminal Aerodrome Forecast
Issued by NWS

Home | Current Version | Previous Version | Text Only | Print | Product List | Glossary On
Versions: 1 2 3 4 5 6 7 8 9 10 11 12 13 14 15 16 17
000
FTUS43 KIND 021700
TAFBMG
TAF
KBMG 021725Z 0218/0318 08005KT P6SM BKN250
     FM022300 09005KT P6SM SCT100 BKN200
     FM030300 10006KT P6SM OVC080
     FM031000 12006KT 4SM -FZRAPL BR SCT015 OVC040
     FM031200 14009KT 3SM -FZRA BR OVC015
     FM031530 17010KT 3SM -RA BR OVC008=

USA.gov is the U.S. government's official web portal to all federal, state and local government web resources and services.